Login to view Products
 
Saturday, April 13, 2024 (03:21 UTC)
Al Maktoum International Airport
Last Updated: 13-Apr-2024 (03:20Z)
Wind Dir/Speed: SSW at 05 kt
Temperature: 25.3°C
Rel. Humidity: 61 %
Pressure: 1008.7 hPa
Visibility: 10000 m
  • METAR OMDW 130300Z 19005KT CAVOK 25/18 Q1008 NOSIG
  • TAF OMDW 122300Z 1300/1406 23007KT 8000 NSC BECMG 1304/1306 31015KT PROB30 TEMPO 1306/1401 VRB18G28KT 3000 SHRA BLDU FEW040TCU BECMG 1316/1318 21005KT=
03 D:\Input Parser\Destinations\Final\23\OMDW_TAF.txt-- 12/04/2024-- 13/04/2024-- 3